<?xml version="1.0" encoding="UTF-8" standalone="no" ?>
<gpx xmlns="http://www.topografix.com/GPX/1/1" xmlns:xsi="http://www.w3.org/2001/XMLSchema-instance" xsi:schemaLocation="http://www.topografix.com/GPX/1/1 http://www.topografix.com/GPX/1/1/gpx.xsd" version="1.1" creator="VisuGPX - https://www.visugpx.com">
  <metadata>
    <name>Traces DPT 33</name>
    <desc><![CDATA[Total: 12.2km]]></desc>
  </metadata>
  <trk>
    <name><![CDATA[NewTrack]]></name>
    <desc><![CDATA[Total: 4.7km]]></desc>
    <extensions>
      <line xmlns="http://www.topografix.com/GPX/gpx_style/0/2">
        <color>008888</color>
        <width>4</width>
      </line>
    </extensions>
    <trkseg>
      <trkpt lat="44.62323" lon="-0.10699">
        <ele>27.14</ele>
        <time>2015-02-21T14:22:17Z</time>
      </trkpt>
      <trkpt lat="44.62356" lon="-0.10878">
        <ele>34.22</ele>
        <time>2015-02-21T14:23:45Z</time>
      </trkpt>
      <trkpt lat="44.62341" lon="-0.1108">
        <ele>32.39</ele>
        <time>2015-02-21T14:25:22Z</time>
      </trkpt>
      <trkpt lat="44.62339" lon="-0.11117">
        <ele>32.82</ele>
        <time>2015-02-21T14:25:40Z</time>
      </trkpt>
      <trkpt lat="44.62348" lon="-0.11183">
        <ele>35.41</ele>
        <time>2015-02-21T14:26:11Z</time>
      </trkpt>
      <trkpt lat="44.62357" lon="-0.112">
        <ele>36.74</ele>
        <time>2015-02-21T14:26:21Z</time>
      </trkpt>
      <trkpt lat="44.62426" lon="-0.11269">
        <ele>44.56</ele>
        <time>2015-02-21T14:27:18Z</time>
      </trkpt>
      <trkpt lat="44.62435" lon="-0.113">
        <ele>45.11</ele>
        <time>2015-02-21T14:27:34Z</time>
      </trkpt>
      <trkpt lat="44.62434" lon="-0.11374">
        <ele>45.53</ele>
        <time>2015-02-21T14:28:10Z</time>
      </trkpt>
      <trkpt lat="44.62417" lon="-0.11604">
        <ele>49.26</ele>
        <time>2015-02-21T14:30:00Z</time>
      </trkpt>
      <trkpt lat="44.62412" lon="-0.11691">
        <ele>50.65</ele>
        <time>2015-02-21T14:30:41Z</time>
      </trkpt>
      <trkpt lat="44.62407" lon="-0.11756">
        <ele>52.41</ele>
        <time>2015-02-21T14:31:12Z</time>
      </trkpt>
      <trkpt lat="44.62404" lon="-0.11806">
        <ele>53.32</ele>
        <time>2015-02-21T14:31:37Z</time>
      </trkpt>
      <trkpt lat="44.62378" lon="-0.11862">
        <ele>50.67</ele>
        <time>2015-02-21T14:32:09Z</time>
      </trkpt>
      <trkpt lat="44.62367" lon="-0.11864">
        <ele>49.86</ele>
        <time>2015-02-21T14:32:16Z</time>
      </trkpt>
      <trkpt lat="44.62358" lon="-0.11815">
        <ele>49.79</ele>
        <time>2015-02-21T14:32:40Z</time>
      </trkpt>
      <trkpt lat="44.62403" lon="-0.11812">
        <ele>53.39</ele>
        <time>2015-02-21T14:33:11Z</time>
      </trkpt>
      <trkpt lat="44.62407" lon="-0.11894">
        <ele>50.94</ele>
        <time>2015-02-21T14:33:49Z</time>
      </trkpt>
      <trkpt lat="44.62411" lon="-0.11929">
        <ele>49.49</ele>
        <time>2015-02-21T14:34:06Z</time>
      </trkpt>
      <trkpt lat="44.62436" lon="-0.12031">
        <ele>48.64</ele>
        <time>2015-02-21T14:34:58Z</time>
      </trkpt>
      <trkpt lat="44.62465" lon="-0.12145">
        <ele>50.01</ele>
        <time>2015-02-21T14:35:55Z</time>
      </trkpt>
      <trkpt lat="44.62498" lon="-0.12235">
        <ele>51.22</ele>
        <time>2015-02-21T14:36:44Z</time>
      </trkpt>
      <trkpt lat="44.6257" lon="-0.1231">
        <ele>53.76</ele>
        <time>2015-02-21T14:37:44Z</time>
      </trkpt>
      <trkpt lat="44.62581" lon="-0.12337">
        <ele>53.82</ele>
        <time>2015-02-21T14:37:58Z</time>
      </trkpt>
      <trkpt lat="44.62631" lon="-0.1256">
        <ele>51.08</ele>
        <time>2015-02-21T14:39:50Z</time>
      </trkpt>
      <trkpt lat="44.62628" lon="-0.12731">
        <ele>58.07</ele>
        <time>2015-02-21T14:41:11Z</time>
      </trkpt>
      <trkpt lat="44.6266" lon="-0.12737">
        <ele>60.83</ele>
        <time>2015-02-21T14:41:33Z</time>
      </trkpt>
      <trkpt lat="44.62904" lon="-0.12628">
        <ele>68.43</ele>
        <time>2015-02-21T14:44:23Z</time>
      </trkpt>
      <trkpt lat="44.62947" lon="-0.12613">
        <ele>70.65</ele>
        <time>2015-02-21T14:44:53Z</time>
      </trkpt>
      <trkpt lat="44.62993" lon="-0.12603">
        <ele>73.07</ele>
        <time>2015-02-21T14:45:24Z</time>
      </trkpt>
      <trkpt lat="44.63035" lon="-0.12589">
        <ele>74.58</ele>
        <time>2015-02-21T14:45:53Z</time>
      </trkpt>
      <trkpt lat="44.63138" lon="-0.12536">
        <ele>82.39</ele>
        <time>2015-02-21T14:47:06Z</time>
      </trkpt>
      <trkpt lat="44.63084" lon="-0.1237">
        <ele>79.59</ele>
        <time>2015-02-21T14:48:32Z</time>
      </trkpt>
      <trkpt lat="44.63049" lon="-0.1231">
        <ele>78.76</ele>
        <time>2015-02-21T14:49:09Z</time>
      </trkpt>
      <trkpt lat="44.63033" lon="-0.12261">
        <ele>78.18</ele>
        <time>2015-02-21T14:49:35Z</time>
      </trkpt>
      <trkpt lat="44.63014" lon="-0.1216">
        <ele>76.49</ele>
        <time>2015-02-21T14:50:25Z</time>
      </trkpt>
      <trkpt lat="44.62954" lon="-0.1187">
        <ele>77.71</ele>
        <time>2015-02-21T14:52:49Z</time>
      </trkpt>
      <trkpt lat="44.62941" lon="-0.11829">
        <ele>77.89</ele>
        <time>2015-02-21T14:53:10Z</time>
      </trkpt>
      <trkpt lat="44.62899" lon="-0.11737">
        <ele>75.73</ele>
        <time>2015-02-21T14:54:02Z</time>
      </trkpt>
      <trkpt lat="44.62876" lon="-0.11675">
        <ele>74.08</ele>
        <time>2015-02-21T14:54:35Z</time>
      </trkpt>
      <trkpt lat="44.62848" lon="-0.11578">
        <ele>72.66</ele>
        <time>2015-02-21T14:55:25Z</time>
      </trkpt>
      <trkpt lat="44.62854" lon="-0.11556">
        <ele>72.75</ele>
        <time>2015-02-21T14:55:37Z</time>
      </trkpt>
      <trkpt lat="44.62934" lon="-0.11478">
        <ele>72.25</ele>
        <time>2015-02-21T14:56:42Z</time>
      </trkpt>
      <trkpt lat="44.6294" lon="-0.11463">
        <ele>71.58</ele>
        <time>2015-02-21T14:56:50Z</time>
      </trkpt>
      <trkpt lat="44.62943" lon="-0.11449">
        <ele>70.9</ele>
        <time>2015-02-21T14:56:57Z</time>
      </trkpt>
      <trkpt lat="44.62934" lon="-0.11373">
        <ele>68.12</ele>
        <time>2015-02-21T14:57:34Z</time>
      </trkpt>
      <trkpt lat="44.62924" lon="-0.11309">
        <ele>65.24</ele>
        <time>2015-02-21T14:58:05Z</time>
      </trkpt>
      <trkpt lat="44.62908" lon="-0.11259">
        <ele>61.64</ele>
        <time>2015-02-21T14:58:31Z</time>
      </trkpt>
      <trkpt lat="44.62879" lon="-0.11204">
        <ele>57.44</ele>
        <time>2015-02-21T14:59:03Z</time>
      </trkpt>
      <trkpt lat="44.62857" lon="-0.11138">
        <ele>52.56</ele>
        <time>2015-02-21T14:59:38Z</time>
      </trkpt>
      <trkpt lat="44.62849" lon="-0.11097">
        <ele>50.01</ele>
        <time>2015-02-21T14:59:59Z</time>
      </trkpt>
      <trkpt lat="44.62851" lon="-0.10995">
        <ele>45.15</ele>
        <time>2015-02-21T15:00:47Z</time>
      </trkpt>
      <trkpt lat="44.62845" lon="-0.10979">
        <ele>44.09</ele>
        <time>2015-02-21T15:00:56Z</time>
      </trkpt>
      <trkpt lat="44.62833" lon="-0.10969">
        <ele>43.17</ele>
        <time>2015-02-21T15:01:05Z</time>
      </trkpt>
      <trkpt lat="44.62814" lon="-0.10964">
        <ele>44.7</ele>
        <time>2015-02-21T15:01:18Z</time>
      </trkpt>
      <trkpt lat="44.62779" lon="-0.10912">
        <ele>44.45</ele>
        <time>2015-02-21T15:01:52Z</time>
      </trkpt>
      <trkpt lat="44.62748" lon="-0.10844">
        <ele>35</ele>
        <time>2015-02-21T15:02:31Z</time>
      </trkpt>
      <trkpt lat="44.62713" lon="-0.10702">
        <ele>23.32</ele>
        <time>2015-02-21T15:03:43Z</time>
      </trkpt>
      <trkpt lat="44.62657" lon="-0.10701">
        <ele>22.49</ele>
        <time>2015-02-21T15:04:20Z</time>
      </trkpt>
      <trkpt lat="44.62597" lon="-0.107">
        <ele>22.9</ele>
        <time>2015-02-21T15:05:00Z</time>
      </trkpt>
      <trkpt lat="44.62568" lon="-0.10697">
        <ele>24.59</ele>
        <time>2015-02-21T15:05:20Z</time>
      </trkpt>
      <trkpt lat="44.62549" lon="-0.10687">
        <ele>25.73</ele>
        <time>2015-02-21T15:05:33Z</time>
      </trkpt>
      <trkpt lat="44.62511" lon="-0.10647">
        <ele>26.05</ele>
        <time>2015-02-21T15:06:05Z</time>
      </trkpt>
      <trkpt lat="44.6246" lon="-0.10606">
        <ele>26.11</ele>
        <time>2015-02-21T15:06:44Z</time>
      </trkpt>
      <trkpt lat="44.62411" lon="-0.10574">
        <ele>24.35</ele>
        <time>2015-02-21T15:07:20Z</time>
      </trkpt>
      <trkpt lat="44.62389" lon="-0.10563">
        <ele>23.03</ele>
        <time>2015-02-21T15:07:36Z</time>
      </trkpt>
      <trkpt lat="44.62372" lon="-0.1056">
        <ele>22.27</ele>
        <time>2015-02-21T15:07:47Z</time>
      </trkpt>
      <trkpt lat="44.62357" lon="-0.10562">
        <ele>21.78</ele>
        <time>2015-02-21T15:07:57Z</time>
      </trkpt>
      <trkpt lat="44.62334" lon="-0.10572">
        <ele>21.48</ele>
        <time>2015-02-21T15:08:13Z</time>
      </trkpt>
      <trkpt lat="44.62324" lon="-0.10584">
        <ele>21.98</ele>
        <time>2015-02-21T15:08:22Z</time>
      </trkpt>
      <trkpt lat="44.62318" lon="-0.10604">
        <ele>23.06</ele>
        <time>2015-02-21T15:08:32Z</time>
      </trkpt>
      <trkpt lat="44.62319" lon="-0.10633">
        <ele>24.57</ele>
        <time>2015-02-21T15:08:46Z</time>
      </trkpt>
      <trkpt lat="44.62324" lon="-0.10693">
        <ele>27.09</ele>
        <time>2015-02-21T15:09:15Z</time>
      </trkpt>
    </trkseg>
  </trk>
</gpx>